Time;durP1;ratioP1;P1;durP2;ratioP2;P2;SDS_P1;SDS_P2;PMS_P1;PMS_P2;Temp;Humidity;BMP_temperature;BMP_pressure;BME280_temperature;BME280_humidity;BME280_pressure;Samples;Min_cycle;Max_cycle;Signal;HPM_P1;HPM_P2
2021/12/22 00:02:08;;;;;;;33.63;24.02;;;-3.50;99.90;;;;;;5003974;28;20483;-82
2021/12/22 00:04:39;;;;;;;35.17;23.85;;;-3.50;99.90;;;;;;5005037;28;20051;-82
2021/12/22 00:07:05;;;;;;;35.20;23.73;;;-3.50;99.90;;;;;;4983757;28;20048;-82
2021/12/22 00:09:31;;;;;;;35.17;23.63;;;-3.50;99.90;;;;;;5011331;28;20158;-82
2021/12/22 00:11:56;;;;;;;35.15;24.50;;;-3.50;99.90;;;;;;5006497;28;20566;-82
2021/12/22 00:14:22;;;;;;;36.30;24.98;;;-3.60;99.90;;;;;;4979739;28;20088;-82
2021/12/22 00:16:48;;;;;;;32.35;23.88;;;-3.50;99.90;;;;;;5006470;28;20070;-82
2021/12/22 00:19:14;;;;;;;35.65;23.92;;;-3.50;99.90;;;;;;5003389;28;20526;-82
2021/12/22 00:21:40;;;;;;;35.65;24.60;;;-3.60;99.90;;;;;;4999113;28;20047;-82
2021/12/22 00:24:06;;;;;;;38.53;25.40;;;-3.60;99.90;;;;;;5025525;28;20379;-82
2021/12/22 00:26:32;;;;;;;39.10;25.25;;;-3.60;99.90;;;;;;5043594;28;20479;-82
2021/12/22 00:28:58;;;;;;;35.47;25.23;;;-3.50;99.90;;;;;;5043265;28;20047;-82
2021/12/22 00:31:23;;;;;;;35.42;25.02;;;-3.60;99.90;;;;;;5021024;28;20071;-83
2021/12/22 00:33:51;;;;;;;38.17;25.90;;;-3.50;99.90;;;;;;5014803;28;20043;-83
2021/12/22 00:36:23;;;;;;;35.85;25.52;;;-3.40;99.90;;;;;;5007305;28;20465;-83
2021/12/22 00:38:50;;;;;;;38.20;25.83;;;-3.60;99.90;;;;;;4978731;28;20416;-83
2021/12/22 00:41:16;;;;;;;36.78;24.95;;;-3.60;99.90;;;;;;5002606;28;20046;-83
2021/12/22 00:43:42;;;;;;;37.13;25.30;;;-3.70;99.90;;;;;;4977693;28;20056;-83
2021/12/22 00:46:08;;;;;;;38.47;25.77;;;-3.70;99.90;;;;;;5002126;28;20062;-83
2021/12/22 00:48:34;;;;;;;35.35;24.58;;;-3.80;99.90;;;;;;4961930;28;20435;-83
2021/12/22 00:51:01;;;;;;;38.47;25.15;;;-3.90;99.90;;;;;;5004929;28;20638;-83
2021/12/22 00:53:27;;;;;;;36.97;25.15;;;-3.90;99.90;;;;;;4999536;28;20838;-84
2021/12/22 00:55:53;;;;;;;35.90;25.35;;;-3.90;99.90;;;;;;4975000;28;20057;-83
2021/12/22 00:58:20;;;;;;;38.63;25.95;;;-3.90;99.90;;;;;;5002064;28;20435;-83
2021/12/22 01:00:47;;;;;;;38.63;26.83;;;-3.80;99.90;;;;;;5002316;28;20660;-83
2021/12/22 01:03:18;;;;;;;36.83;26.30;;;-3.80;99.90;;;;;;4984654;28;20239;-83
2021/12/22 01:05:44;;;;;;;38.75;26.35;;;-3.80;99.90;;;;;;5005488;28;20895;-83
2021/12/22 01:08:09;;;;;;;39.28;26.70;;;-3.90;99.90;;;;;;4996984;28;20061;-84
2021/12/22 01:10:36;;;;;;;37.42;25.63;;;-3.90;99.90;;;;;;4982959;28;20054;-84
2021/12/22 01:13:07;;;;;;;41.08;26.35;;;-3.90;99.90;;;;;;4999962;28;20935;-84
2021/12/22 01:15:34;;;;;;;38.22;24.95;;;-3.90;99.90;;;;;;4991232;28;20496;-84
2021/12/22 01:18:07;;;;;;;40.40;26.13;;;-4.00;99.90;;;;;;4998266;28;20052;-84
2021/12/22 01:20:48;;;;;;;38.88;25.52;;;-4.00;99.90;;;;;;4971179;28;20052;-84
2021/12/22 01:23:14;;;;;;;40.58;25.77;;;-4.10;99.90;;;;;;5003665;28;20649;-84
2021/12/22 01:25:43;;;;;;;39.45;26.20;;;-4.00;99.90;;;;;;4978969;28;20560;-84
2021/12/22 01:28:10;;;;;;;39.70;25.23;;;-4.10;99.90;;;;;;4996565;28;20048;-84
2021/12/22 01:30:42;;;;;;;41.15;26.65;;;-4.10;99.90;;;;;;4972401;28;20074;-84
2021/12/22 01:33:08;;;;;;;43.05;27.35;;;-4.10;99.90;;;;;;4981401;28;20043;-84
2021/12/22 01:35:35;;;;;;;40.58;26.63;;;-4.00;99.90;;;;;;5002360;28;20498;-84
2021/12/22 01:38:02;;;;;;;39.47;26.35;;;-4.10;99.90;;;;;;4997971;28;20051;-84
2021/12/22 01:40:31;;;;;;;41.70;27.70;;;-4.10;99.90;;;;;;4979661;28;20054;-83
2021/12/22 01:42:58;;;;;;;43.65;27.20;;;-4.00;99.90;;;;;;4987762;28;20837;-84
2021/12/22 01:51:26;;;;;;;41.33;23.98;;;-4.10;99.90;;;;;;4925430;28;20306;-84
2021/12/22 01:53:56;;;;;;;42.75;26.55;;;-4.00;99.90;;;;;;4905887;28;20080;-84
2021/12/22 01:56:27;;;;;;;39.78;26.65;;;-4.00;99.90;;;;;;4958774;28;20255;-84
2021/12/22 01:58:59;;;;;;;43.05;25.98;;;-4.10;99.90;;;;;;4979780;28;20829;-84
2021/12/22 02:01:34;;;;;;;39.72;24.63;;;-4.10;99.90;;;;;;5005469;28;20249;-85
2021/12/22 02:04:01;;;;;;;37.70;23.83;;;-4.00;99.90;;;;;;5008367;28;20522;-84
2021/12/22 02:06:27;;;;;;;35.35;22.30;;;-4.00;99.90;;;;;;5006028;28;20598;-86
2021/12/22 02:08:54;;;;;;;34.83;22.95;;;-4.20;99.90;;;;;;5006524;28;20516;-84
2021/12/22 02:11:21;;;;;;;35.63;22.85;;;-4.20;99.90;;;;;;4992592;28;20884;-85
2021/12/22 02:13:54;;;;;;;35.40;24.13;;;-4.10;99.90;;;;;;4991587;28;20063;-84
2021/12/22 02:16:26;;;;;;;36.22;23.95;;;-4.20;99.90;;;;;;4999298;28;20043;-85
2021/12/22 02:18:53;;;;;;;34.45;24.20;;;-4.20;99.90;;;;;;5002436;28;20050;-83
2021/12/22 02:21:22;;;;;;;36.33;23.45;;;-4.20;99.90;;;;;;4985007;28;20144;-84
2021/12/22 02:23:48;;;;;;;36.88;24.45;;;-4.20;99.90;;;;;;5005642;28;20568;-85
2021/12/22 02:27:06;;;;;;;33.97;23.92;;;-4.20;99.90;;;;;;5000648;28;20070;-84
2021/12/22 02:29:06;;;;;;;33.10;23.92;;;-4.20;99.90;;;;;;4988457;28;20159;-83
2021/12/22 02:31:39;;;;;;;34.42;23.95;;;-4.30;99.90;;;;;;4996887;28;20064;-84
2021/12/22 02:34:06;;;;;;;31.88;22.45;;;-4.20;99.90;;;;;;4977540;28;21099;-84
2021/12/22 02:36:38;;;;;;;33.33;23.30;;;-4.30;99.90;;;;;;5007018;28;20080;-83
2021/12/22 02:39:05;;;;;;;30.52;21.77;;;-4.40;99.90;;;;;;4983939;28;20859;-83
2021/12/22 02:41:32;;;;;;;35.00;23.48;;;-4.30;99.90;;;;;;5001904;28;20526;-83
2021/12/22 02:44:00;;;;;;;34.25;23.13;;;-4.30;99.90;;;;;;4981180;28;20289;-83
2021/12/22 02:46:30;;;;;;;31.83;21.83;;;-4.30;99.90;;;;;;4998758;28;20381;-84
2021/12/22 02:48:57;;;;;;;33.05;21.00;;;-4.30;99.90;;;;;;5001531;28;20150;-84
2021/12/22 02:51:27;;;;;;;34.88;21.98;;;-4.20;99.90;;;;;;4986823;28;20047;-83
2021/12/22 03:04:11;;;;;;;32.63;22.10;;;-4.30;99.90;;;;;;5006086;28;20421;-81
2021/12/22 03:06:45;;;;;;;32.80;23.13;;;-4.30;99.90;;;;;;5000219;28;20528;-82
2021/12/22 03:09:20;;;;;;;32.20;22.00;;;-4.30;99.90;;;;;;4999901;28;20048;-82
2021/12/22 03:11:46;;;;;;;32.58;22.23;;;-4.30;99.90;;;;;;4982273;28;20055;-82
2021/12/22 03:14:13;;;;;;;34.22;22.63;;;-4.30;99.90;;;;;;5002898;28;20785;-81
2021/12/22 03:16:42;;;;;;;33.78;21.92;;;-4.30;99.90;;;;;;4999880;28;20479;-82
2021/12/22 03:19:13;;;;;;;31.42;21.60;;;-4.30;99.90;;;;;;4988346;28;20222;-82
2021/12/22 03:21:41;;;;;;;31.83;21.98;;;-4.40;99.90;;;;;;4979165;28;20051;-83
2021/12/22 03:24:08;;;;;;;31.48;21.92;;;-4.40;99.90;;;;;;5001091;28;20075;-82
2021/12/22 03:26:34;;;;;;;33.50;22.00;;;-4.40;99.90;;;;;;5002044;28;20051;-82
2021/12/22 03:28:59;;;;;;;32.28;21.60;;;-4.30;99.90;;;;;;5018645;28;20467;-82
2021/12/22 03:31:25;;;;;;;32.53;22.60;;;-4.40;99.90;;;;;;4999651;28;20058;-82
2021/12/22 03:33:51;;;;;;;35.28;23.30;;;-4.30;99.90;;;;;;5001021;28;20042;-83
2021/12/22 03:36:17;;;;;;;32.03;23.10;;;-4.30;99.90;;;;;;4998470;28;20441;-82
2021/12/22 03:38:44;;;;;;;31.02;21.63;;;-4.30;99.90;;;;;;5001593;28;20052;-82
2021/12/22 03:41:09;;;;;;;33.42;22.83;;;-4.30;99.90;;;;;;4995213;28;20513;-82
2021/12/22 03:43:36;;;;;;;34.53;23.25;;;-4.20;99.90;;;;;;4996764;28;20048;-81
2021/12/22 03:46:03;;;;;;;32.97;22.27;;;-4.20;99.90;;;;;;5003442;28;20094;-82
2021/12/22 03:48:29;;;;;;;31.80;21.70;;;-4.20;99.90;;;;;;4982118;28;20055;-82
2021/12/22 03:50:55;;;;;;;31.42;21.77;;;-4.20;99.90;;;;;;5004640;28;20047;-81
2021/12/22 03:53:21;;;;;;;32.45;21.13;;;-4.30;99.90;;;;;;4997784;28;20502;-82
2021/12/22 03:55:47;;;;;;;28.88;20.83;;;-4.30;99.90;;;;;;4959400;28;20241;-82
2021/12/22 03:58:12;;;;;;;29.90;20.27;;;-4.40;99.90;;;;;;5019462;28;20107;-82
2021/12/22 04:00:41;;;;;;;32.15;21.38;;;-4.50;99.90;;;;;;5004090;28;20831;-82
2021/12/22 04:03:16;;;;;;;31.45;21.55;;;-4.40;99.90;;;;;;5003692;28;20044;-82
2021/12/22 04:05:44;;;;;;;31.60;21.63;;;-4.50;99.90;;;;;;5006033;28;20058;-82
2021/12/22 04:08:11;;;;;;;31.08;20.95;;;-4.40;99.90;;;;;;4995205;28;20083;-82
2021/12/22 04:10:37;;;;;;;32.47;20.77;;;-4.50;99.90;;;;;;5019295;28;20791;-81
2021/12/22 04:13:03;;;;;;;33.35;22.20;;;-4.50;99.90;;;;;;5004086;28;21014;-81
2021/12/22 04:15:29;;;;;;;34.88;21.35;;;-4.50;99.90;;;;;;5005452;28;20047;-81
2021/12/22 04:17:55;;;;;;;33.10;22.75;;;-4.50;99.90;;;;;;4987012;28;20579;-81
2021/12/22 04:20:22;;;;;;;35.22;22.48;;;-4.60;99.90;;;;;;5005181;28;20505;-81
2021/12/22 04:22:48;;;;;;;37.05;23.65;;;-4.60;99.90;;;;;;5019087;28;20082;-81
2021/12/22 04:25:20;;;;;;;40.47;22.48;;;-4.50;99.90;;;;;;5024152;28;20047;-81
2021/12/22 04:27:48;;;;;;;36.80;22.48;;;-4.50;99.90;;;;;;5011078;28;20108;-81
2021/12/22 04:30:14;;;;;;;36.85;23.13;;;-4.70;99.90;;;;;;4998248;28;20051;-81
2021/12/22 04:32:40;;;;;;;36.40;22.98;;;-4.60;99.90;;;;;;5001720;28;20039;-80
2021/12/22 04:35:06;;;;;;;36.25;23.02;;;-4.50;99.90;;;;;;5004586;28;20211;-81
2021/12/22 04:37:32;;;;;;;39.08;23.38;;;-4.50;99.90;;;;;;4998940;28;20048;-80
2021/12/22 04:39:58;;;;;;;38.67;22.98;;;-4.60;99.90;;;;;;5018016;28;20396;-81
2021/12/22 04:42:23;;;;;;;35.88;22.95;;;-4.60;99.90;;;;;;5001246;28;20058;-81
2021/12/22 04:44:52;;;;;;;35.58;22.10;;;-4.50;99.90;;;;;;4997896;28;20043;-81
2021/12/22 04:47:18;;;;;;;38.05;22.52;;;-4.50;99.90;;;;;;5009467;28;20051;-81
2021/12/22 04:49:44;;;;;;;38.35;23.80;;;-4.50;99.90;;;;;;4985534;28;20129;-80
2021/12/22 04:52:15;;;;;;;37.72;23.77;;;-4.50;99.90;;;;;;4994813;28;20048;-80
2021/12/22 04:54:52;;;;;;;40.53;23.17;;;-4.50;99.90;;;;;;4999052;28;20418;-81
2021/12/22 04:57:18;;;;;;;38.30;22.35;;;-4.50;99.90;;;;;;5001385;28;20507;-80
2021/12/22 04:59:44;;;;;;;39.88;23.33;;;-4.50;99.90;;;;;;5000932;28;20051;-81
2021/12/22 05:02:10;;;;;;;40.53;23.45;;;-4.50;99.90;;;;;;4980527;28;20047;-81
2021/12/22 05:04:36;;;;;;;43.75;23.40;;;-4.40;99.90;;;;;;4997394;28;20058;-80
2021/12/22 05:07:02;;;;;;;42.40;25.15;;;-4.50;99.90;;;;;;5021341;28;20112;-80
2021/12/22 05:09:28;;;;;;;42.00;24.33;;;-4.50;99.90;;;;;;4997856;28;20043;-80
2021/12/22 05:11:54;;;;;;;41.22;23.52;;;-4.50;99.90;;;;;;5004256;28;20059;-81
2021/12/22 05:14:19;;;;;;;40.47;24.20;;;-4.50;99.90;;;;;;5018816;28;20886;-80
2021/12/22 05:16:48;;;;;;;37.25;23.42;;;-4.50;99.90;;;;;;5000376;28;20449;-80
2021/12/22 05:19:16;;;;;;;38.58;23.15;;;-4.50;99.90;;;;;;5001646;28;20492;-80
2021/12/22 05:21:43;;;;;;;39.28;22.65;;;-4.50;99.90;;;;;;4997044;28;20952;-80
2021/12/22 05:24:09;;;;;;;38.00;22.88;;;-4.50;99.90;;;;;;5013396;28;20043;-80
2021/12/22 05:26:35;;;;;;;39.60;22.65;;;-4.50;99.90;;;;;;4998217;28;20458;-80
2021/12/22 05:29:02;;;;;;;41.88;24.58;;;-4.50;99.90;;;;;;4995205;28;20532;-80
2021/12/22 05:31:28;;;;;;;38.20;22.92;;;-4.50;99.90;;;;;;4995437;28;20171;-80
2021/12/22 05:33:54;;;;;;;38.03;23.65;;;-4.50;99.90;;;;;;4998084;28;20559;-80
2021/12/22 05:36:20;;;;;;;42.08;23.63;;;-4.50;99.90;;;;;;4997520;28;20404;-80
2021/12/22 05:38:46;;;;;;;37.78;23.73;;;-4.50;99.90;;;;;;4998663;28;20464;-80
2021/12/22 05:41:11;;;;;;;39.15;24.20;;;-4.40;99.90;;;;;;4975201;28;20575;-80
2021/12/22 05:43:37;;;;;;;39.58;22.05;;;-4.50;99.90;;;;;;4995001;28;20055;-80
2021/12/22 05:46:04;;;;;;;37.80;23.08;;;-4.50;99.90;;;;;;4995349;28;20071;-80
2021/12/22 05:48:30;;;;;;;37.35;22.33;;;-4.40;99.90;;;;;;4995399;28;20220;-80
2021/12/22 05:50:58;;;;;;;35.78;23.02;;;-4.50;99.90;;;;;;5004725;28;20055;-80
2021/12/22 05:53:28;;;;;;;34.15;21.52;;;-4.50;99.90;;;;;;5002102;28;20100;-79
2021/12/22 05:55:54;;;;;;;36.95;22.27;;;-4.50;99.90;;;;;;5015003;28;20043;-80
2021/12/22 05:58:23;;;;;;;36.70;23.48;;;-4.40;99.90;;;;;;5000868;28;20096;-80
2021/12/22 06:00:49;;;;;;;36.17;22.08;;;-4.40;99.90;;;;;;5017018;28;20047;-80
2021/12/22 06:03:16;;;;;;;35.88;22.30;;;-4.40;99.90;;;;;;5011878;28;20043;-80
2021/12/22 06:05:42;;;;;;;37.08;22.13;;;-4.40;99.90;;;;;;4997450;28;20081;-80
2021/12/22 06:08:08;;;;;;;36.55;21.80;;;-4.30;99.90;;;;;;4995836;28;20401;-80
2021/12/22 06:10:34;;;;;;;37.92;22.55;;;-4.40;99.90;;;;;;5012136;28;20847;-80
2021/12/22 06:13:05;;;;;;;36.05;22.90;;;-4.30;99.90;;;;;;4996938;28;20449;-79
2021/12/22 06:15:33;;;;;;;35.67;22.92;;;-4.40;99.90;;;;;;5015580;28;20297;-80
2021/12/22 06:18:00;;;;;;;35.97;21.80;;;-4.30;99.90;;;;;;4997346;28;20438;-80
2021/12/22 06:20:27;;;;;;;35.90;21.65;;;-4.40;99.90;;;;;;4973033;28;20055;-80
2021/12/22 06:22:53;;;;;;;34.78;20.45;;;-4.50;99.90;;;;;;4995684;28;20235;-79
2021/12/22 06:25:21;;;;;;;35.25;22.00;;;-4.40;99.90;;;;;;5017634;28;20722;-80
2021/12/22 06:27:47;;;;;;;37.17;21.70;;;-4.50;99.90;;;;;;5023505;28;20123;-80
2021/12/22 06:30:13;;;;;;;34.45;21.92;;;-4.40;99.90;;;;;;5018476;28;20058;-79
2021/12/22 06:32:39;;;;;;;35.20;23.00;;;-4.40;99.90;;;;;;5021008;28;20284;-79
2021/12/22 06:35:06;;;;;;;36.92;23.67;;;-4.40;99.90;;;;;;4997686;28;20634;-80
2021/12/22 06:37:32;;;;;;;33.60;21.60;;;-4.40;99.90;;;;;;5019191;28;20048;-79
2021/12/22 06:39:58;;;;;;;37.08;22.58;;;-4.40;99.90;;;;;;4995659;28;20046;-79
2021/12/22 06:42:23;;;;;;;33.08;21.35;;;-4.40;99.90;;;;;;5000493;28;20629;-79
2021/12/22 06:44:50;;;;;;;33.47;22.45;;;-4.40;99.90;;;;;;5001041;28;20328;-79
2021/12/22 06:47:16;;;;;;;38.60;23.08;;;-4.40;99.90;;;;;;5017952;28;20515;-79
2021/12/22 06:49:42;;;;;;;40.03;22.60;;;-4.40;99.90;;;;;;5001987;28;20910;-80
2021/12/22 06:52:08;;;;;;;31.30;21.33;;;-4.30;99.90;;;;;;4981258;28;20054;-79
2021/12/22 06:54:34;;;;;;;32.65;22.33;;;-4.40;99.90;;;;;;4997956;28;20144;-80
2021/12/22 06:57:00;;;;;;;34.47;21.33;;;-4.40;99.90;;;;;;4995522;28;20567;-78
2021/12/22 06:59:26;;;;;;;37.65;23.48;;;-4.30;99.90;;;;;;5022297;28;20133;-79
2021/12/22 07:01:52;;;;;;;35.63;21.77;;;-4.30;99.90;;;;;;5015875;28;20154;-79
2021/12/22 07:04:18;;;;;;;37.67;22.83;;;-4.30;99.90;;;;;;5005070;28;20044;-79
2021/12/22 07:06:44;;;;;;;37.38;23.27;;;-4.30;99.90;;;;;;5003021;28;20047;-78
2021/12/22 07:09:12;;;;;;;40.40;23.25;;;-4.30;99.90;;;;;;5019098;28;20430;-77
2021/12/22 07:11:39;;;;;;;47.10;24.55;;;-4.30;99.90;;;;;;4998415;28;20817;-78
2021/12/22 07:14:07;;;;;;;46.25;23.95;;;-4.30;99.90;;;;;;5000286;28;20101;-79
2021/12/22 07:16:33;;;;;;;41.92;25.02;;;-4.40;99.90;;;;;;5014646;28;20057;-79
2021/12/22 07:18:59;;;;;;;38.47;23.15;;;-4.30;99.90;;;;;;4999726;28;20313;-80
2021/12/22 07:21:26;;;;;;;43.13;23.65;;;-4.40;99.90;;;;;;5016649;28;20040;-80
2021/12/22 07:23:51;;;;;;;45.13;25.52;;;-4.40;99.90;;;;;;5001161;28;20075;-79
2021/12/22 07:26:17;;;;;;;43.25;25.05;;;-4.40;99.90;;;;;;4993786;28;20471;-81
2021/12/22 07:28:46;;;;;;;45.15;25.20;;;-4.40;99.90;;;;;;5001793;28;20590;-80
2021/12/22 07:31:14;;;;;;;48.08;25.77;;;-4.40;99.90;;;;;;5018700;28;20508;-79
2021/12/22 07:33:48;;;;;;;47.42;26.05;;;-4.40;99.90;;;;;;4982584;28;20596;-80
2021/12/22 07:36:13;;;;;;;45.83;24.98;;;-4.50;99.90;;;;;;5021140;28;20044;-80
2021/12/22 07:38:39;;;;;;;44.67;24.90;;;-4.40;99.90;;;;;;4982232;28;20550;-80
2021/12/22 07:41:07;;;;;;;41.13;23.48;;;-4.50;99.90;;;;;;4998377;28;20052;-80
2021/12/22 07:43:33;;;;;;;45.47;24.30;;;-4.40;99.90;;;;;;5017050;28;20047;-81
2021/12/22 07:45:59;;;;;;;46.85;25.77;;;-4.30;99.90;;;;;;4979354;28;20503;-79
2021/12/22 07:48:25;;;;;;;43.60;25.45;;;-4.30;99.90;;;;;;4995648;28;20498;-80
2021/12/22 07:50:51;;;;;;;46.10;25.25;;;-4.20;99.90;;;;;;4997272;28;22813;-81
2021/12/22 07:53:18;;;;;;;43.28;23.67;;;-4.20;99.90;;;;;;5003857;28;20765;-79
2021/12/22 07:55:44;;;;;;;45.30;24.75;;;-4.20;99.90;;;;;;4998428;28;20126;-81
2021/12/22 07:58:11;;;;;;;44.22;23.30;;;-4.10;99.90;;;;;;4997008;28;20582;-81
2021/12/22 08:00:38;;;;;;;40.58;23.85;;;-4.10;99.90;;;;;;5002580;28;20079;-80
2021/12/22 08:03:05;;;;;;;45.90;25.38;;;-4.10;99.90;;;;;;4997097;28;20043;-80
2021/12/22 08:05:31;;;;;;;41.05;24.25;;;-4.10;99.90;;;;;;4977286;28;20051;-79
2021/12/22 08:07:59;;;;;;;40.40;23.40;;;-4.10;99.90;;;;;;5018449;28;20221;-78
2021/12/22 08:10:25;;;;;;;43.72;23.20;;;-4.00;99.90;;;;;;4994481;28;20054;-79
2021/12/22 08:12:51;;;;;;;41.05;23.42;;;-4.00;99.90;;;;;;4978232;28;20595;-80
2021/12/22 08:15:17;;;;;;;39.63;22.08;;;-4.00;99.90;;;;;;4996952;28;20088;-80
2021/12/22 08:17:43;;;;;;;46.33;24.25;;;-4.00;99.90;;;;;;5000954;28;20055;-80
2021/12/22 08:20:09;;;;;;;38.80;24.13;;;-3.90;99.90;;;;;;5016562;28;20047;-79
2021/12/22 08:22:35;;;;;;;44.47;22.75;;;-3.90;99.90;;;;;;4971097;28;20043;-76
2021/12/22 08:25:01;;;;;;;41.75;23.58;;;-3.80;99.90;;;;;;5012802;28;20113;-78
2021/12/22 08:27:27;;;;;;;41.83;23.95;;;-3.70;99.90;;;;;;5005834;28;20422;-79
2021/12/22 08:29:53;;;;;;;40.08;23.88;;;-3.60;99.90;;;;;;5002602;28;20453;-80
2021/12/22 08:32:19;;;;;;;36.95;24.13;;;-3.60;99.90;;;;;;4997007;28;20243;-81
2021/12/22 08:34:47;;;;;;;39.67;24.35;;;-3.50;99.90;;;;;;5020856;28;20039;-79
2021/12/22 08:39:58;;;;;;;37.00;22.70;;;-3.40;99.90;;;;;;5021947;28;20068;-79
2021/12/22 08:42:24;;;;;;;45.45;24.73;;;-3.50;99.90;;;;;;4977529;28;20043;-80
2021/12/22 08:44:51;;;;;;;49.03;24.65;;;-3.40;99.90;;;;;;5016997;28;21089;-79
2021/12/22 08:47:17;;;;;;;50.50;25.38;;;-3.30;99.90;;;;;;4993188;28;20468;-78
2021/12/22 08:49:44;;;;;;;39.30;23.80;;;-3.10;99.90;;;;;;5019581;28;20047;-79
2021/12/22 08:52:10;;;;;;;41.47;24.15;;;-3.20;99.90;;;;;;4996863;28;21066;-79
2021/12/22 08:54:36;;;;;;;37.85;22.38;;;-3.00;99.90;;;;;;4986665;28;20051;-80
2021/12/22 08:57:02;;;;;;;39.88;23.58;;;-3.10;99.90;;;;;;5012630;28;20861;-80
2021/12/22 08:59:28;;;;;;;44.42;23.38;;;-3.10;99.90;;;;;;5003306;28;20960;-77
2021/12/22 09:01:54;;;;;;;38.00;22.70;;;-2.90;99.90;;;;;;4993697;28;20043;-78
2021/12/22 09:04:20;;;;;;;36.58;22.23;;;-2.80;99.90;;;;;;5013592;28;20048;-81
2021/12/22 09:06:48;;;;;;;43.13;24.58;;;-2.80;99.90;;;;;;4993693;28;20039;-79
2021/12/22 09:09:13;;;;;;;43.45;23.67;;;-2.80;99.90;;;;;;4999858;28;20055;-80
2021/12/22 09:11:39;;;;;;;35.83;21.85;;;-2.70;99.90;;;;;;5013427;28;20499;-79
2021/12/22 09:14:06;;;;;;;40.28;22.92;;;-2.70;99.90;;;;;;4980259;28;20047;-81
2021/12/22 09:16:34;;;;;;;40.05;22.92;;;-2.60;99.90;;;;;;5019182;28;20048;-78
2021/12/22 09:18:59;;;;;;;34.05;21.75;;;-2.60;99.90;;;;;;4995820;28;20051;-81
2021/12/22 09:21:25;;;;;;;38.30;22.52;;;-2.60;99.90;;;;;;4995132;28;20484;-81
2021/12/22 09:23:51;;;;;;;51.20;22.77;;;-2.50;99.90;;;;;;5003116;28;20135;-79
2021/12/22 09:26:17;;;;;;;38.92;21.98;;;-2.50;99.90;;;;;;4998426;28;20051;-80
2021/12/22 09:28:43;;;;;;;35.40;22.35;;;-2.40;99.90;;;;;;5014431;28;20063;-82
2021/12/22 09:31:10;;;;;;;38.58;23.20;;;-2.40;99.90;;;;;;5016448;28;20779;-82
2021/12/22 09:33:37;;;;;;;32.75;21.42;;;-2.20;99.90;;;;;;4977806;28;20795;-81
2021/12/22 09:36:05;;;;;;;32.28;21.38;;;-2.40;99.90;;;;;;4993848;28;20574;-80
2021/12/22 09:38:31;;;;;;;33.78;21.75;;;-2.40;99.90;;;;;;5019753;28;20051;-80
2021/12/22 09:40:57;;;;;;;32.97;21.65;;;-2.30;99.90;;;;;;5015958;28;20311;-80
2021/12/22 09:43:23;;;;;;;36.38;21.60;;;-2.30;99.90;;;;;;4993026;28;20687;-79
2021/12/22 09:45:56;;;;;;;35.05;21.25;;;-2.20;99.90;;;;;;5017447;28;20054;-80
2021/12/22 09:53:23;;;;;;;30.55;21.27;;;-2.00;99.90;;;;;;4996023;28;20949;-80
2021/12/22 09:55:50;;;;;;;33.17;22.85;;;-2.00;99.90;;;;;;4997063;28;20048;-81
2021/12/22 09:58:17;;;;;;;32.47;21.95;;;-2.00;99.90;;;;;;4975522;28;20128;-81
2021/12/22 10:00:43;;;;;;;31.65;21.42;;;-1.80;99.90;;;;;;5003504;28;21651;-78
2021/12/22 10:03:11;;;;;;;31.80;21.10;;;-1.70;99.90;;;;;;5019501;28;20086;-79
2021/12/22 10:05:39;;;;;;;32.80;21.92;;;-1.50;99.90;;;;;;5000897;28;20555;-81
2021/12/22 10:08:15;;;;;;;32.47;21.40;;;-1.40;99.90;;;;;;4998791;28;20063;-82
2021/12/22 10:10:45;;;;;;;33.13;21.77;;;-1.50;99.90;;;;;;5000698;28;20761;-82
2021/12/22 10:13:14;;;;;;;35.22;21.17;;;-1.40;99.90;;;;;;4997222;28;20047;-79
2021/12/22 10:15:40;;;;;;;50.72;21.60;;;-1.30;99.90;;;;;;5020857;28;20047;-81
2021/12/22 10:18:11;;;;;;;34.47;20.73;;;-1.30;99.90;;;;;;4984396;28;20051;-81
2021/12/22 10:20:38;;;;;;;31.35;21.42;;;-1.20;99.90;;;;;;5003939;28;20848;-83
2021/12/22 10:23:26;;;;;;;30.98;20.63;;;-1.20;99.90;;;;;;5002121;28;20074;-81
2021/12/22 10:25:58;;;;;;;30.35;20.27;;;-1.10;99.90;;;;;;5018856;28;20047;-82
2021/12/22 10:28:25;;;;;;;31.90;21.23;;;-1.00;99.90;;;;;;4996865;28;20071;-79
2021/12/22 10:30:56;;;;;;;32.03;20.90;;;-0.90;99.90;;;;;;4964443;28;20805;-81
2021/12/22 10:33:33;;;;;;;28.52;20.10;;;-0.90;99.90;;;;;;5003574;28;20066;-80
2021/12/22 10:36:03;;;;;;;32.53;20.55;;;-0.80;99.90;;;;;;4971400;28;20154;-82
2021/12/22 10:38:31;;;;;;;28.25;19.33;;;-0.70;99.90;;;;;;4979461;28;20044;-82
2021/12/22 10:41:06;;;;;;;28.95;20.15;;;-0.70;99.90;;;;;;4961306;28;20052;-83
2021/12/22 10:43:34;;;;;;;29.20;19.77;;;-0.70;99.90;;;;;;4981777;28;20058;-82
2021/12/22 10:46:05;;;;;;;28.10;18.92;;;-0.60;99.90;;;;;;4997413;28;20669;-83
2021/12/22 10:51:33;;;;;;;25.45;18.40;;;-0.40;99.90;;;;;;4974791;28;20599;-80
2021/12/22 10:54:05;;;;;;;28.08;18.70;;;-0.40;99.90;;;;;;4996587;28;20597;-81
2021/12/22 10:56:34;;;;;;;27.20;17.42;;;-0.40;99.90;;;;;;4966908;28;20845;-81
2021/12/22 10:59:12;;;;;;;26.80;17.55;;;-0.40;99.90;;;;;;4992288;28;20451;-82
2021/12/22 11:02:05;;;;;;;26.15;17.27;;;-0.30;99.90;;;;;;4996361;28;20619;-84
2021/12/22 11:04:33;;;;;;;25.35;16.60;;;-0.20;99.90;;;;;;4981195;28;20088;-83
2021/12/22 11:07:24;;;;;;;27.67;17.48;;;-0.20;99.90;;;;;;4966895;28;20109;-81
2021/12/22 11:09:51;;;;;;;23.05;15.82;;;-0.10;99.90;;;;;;5002086;28;20460;-83
2021/12/22 11:12:17;;;;;;;25.83;16.25;;;-0.10;99.90;;;;;;4959782;28;20403;-84
2021/12/22 11:14:47;;;;;;;23.23;16.45;;;-0.10;99.90;;;;;;4974945;28;20055;-82
2021/12/22 11:17:19;;;;;;;26.67;16.55;;;0.10;99.90;;;;;;4977730;28;20056;-82
2021/12/22 11:19:53;;;;;;;23.70;15.80;;;0.10;99.90;;;;;;4983302;28;20412;-84
2021/12/22 11:22:24;;;;;;;;;;;0.30;99.90;;;;;;4976698;28;20525;-82
2021/12/22 11:24:54;;;;;;;20.92;14.85;;;0.30;99.90;;;;;;4962943;28;20779;-84
2021/12/22 11:27:24;;;;;;;28.27;16.40;;;0.40;99.90;;;;;;4981169;28;20397;-81
2021/12/22 11:29:54;;;;;;;24.45;15.80;;;0.50;99.90;;;;;;4992956;28;20083;-81
2021/12/22 11:32:22;;;;;;;23.88;16.83;;;0.50;99.90;;;;;;5018461;28;21300;-81
2021/12/22 11:34:51;;;;;;;24.63;16.30;;;0.50;99.90;;;;;;5016958;28;20040;-81
2021/12/22 11:37:18;;;;;;;24.23;16.65;;;0.40;99.90;;;;;;5000823;28;20729;-82
2021/12/22 11:39:47;;;;;;;24.58;16.75;;;0.50;99.90;;;;;;4963539;28;20771;-82
2021/12/22 11:42:14;;;;;;;22.40;15.65;;;0.50;99.90;;;;;;4981773;28;20130;-84
2021/12/22 11:44:42;;;;;;;24.00;15.98;;;0.50;99.90;;;;;;5006697;28;20044;-84
2021/12/22 11:47:11;;;;;;;21.50;15.40;;;0.60;99.90;;;;;;4998867;28;20578;-83
2021/12/22 11:49:49;;;;;;;24.38;15.60;;;0.50;99.90;;;;;;5009985;28;20058;-84
2021/12/22 11:52:30;;;;;;;23.45;15.45;;;0.50;99.90;;;;;;5012281;28;20484;-83
2021/12/22 11:55:22;;;;;;;22.70;15.68;;;0.50;99.90;;;;;;5014782;28;20649;-84
2021/12/22 11:57:51;;;;;;;25.48;15.55;;;0.50;99.90;;;;;;5010418;28;20044;-84
2021/12/22 12:00:31;;;;;;;23.25;15.40;;;0.50;99.90;;;;;;5024474;28;20043;-83
2021/12/22 12:03:17;;;;;;;25.15;15.55;;;0.50;99.90;;;;;;5010077;28;20500;-83
2021/12/22 12:06:06;;;;;;;23.10;15.40;;;0.50;99.90;;;;;;4998448;28;20570;-82
2021/12/22 12:08:37;;;;;;;22.60;15.25;;;0.50;99.90;;;;;;5009977;28;20504;-83
2021/12/22 12:11:04;;;;;;;21.50;15.85;;;0.50;99.90;;;;;;5012904;28;20253;-82
2021/12/22 12:22:26;;;;;;;24.23;16.00;;;0.60;99.90;;;;;;5014926;28;20055;-84
2021/12/22 12:24:55;;;;;;;22.60;15.85;;;0.60;99.90;;;;;;4989922;28;20051;-82
2021/12/22 12:27:32;;;;;;;23.00;15.50;;;0.70;99.90;;;;;;5029216;28;20142;-84
2021/12/22 12:29:58;;;;;;;24.10;15.32;;;0.80;99.90;;;;;;5004839;28;20797;-81
2021/12/22 12:32:39;;;;;;;23.45;15.85;;;0.80;99.90;;;;;;5006478;28;20151;-81
2021/12/22 12:35:21;;;;;;;21.77;15.48;;;0.90;99.90;;;;;;5008274;28;20828;-82
2021/12/22 12:38:14;;;;;;;22.27;15.45;;;0.90;99.90;;;;;;5004337;28;20588;-82
2021/12/22 12:40:57;;;;;;;22.85;14.40;;;1.00;99.90;;;;;;5005829;28;20189;-81
2021/12/22 12:43:44;;;;;;;24.50;15.02;;;1.00;99.90;;;;;;5007878;28;20108;-81
2021/12/22 12:46:19;;;;;;;22.38;15.07;;;1.00;99.90;;;;;;5005900;28;20415;-82
2021/12/22 12:49:15;;;;;;;23.13;15.50;;;1.10;99.90;;;;;;5005747;28;20193;-80
2021/12/22 12:51:47;;;;;;;23.20;15.93;;;1.10;99.90;;;;;;5009055;28;20047;-84
2021/12/22 12:54:16;;;;;;;21.70;15.35;;;1.10;99.90;;;;;;5013804;28;20059;-81
2021/12/22 12:56:46;;;;;;;22.23;15.68;;;1.10;99.90;;;;;;5008603;28;20163;-82
2021/12/22 12:59:13;;;;;;;22.20;15.52;;;1.10;99.90;;;;;;5007319;28;20044;-81
2021/12/22 13:01:50;;;;;;;22.48;15.52;;;1.00;99.90;;;;;;5007810;28;20055;-82
2021/12/22 13:04:24;;;;;;;22.55;15.32;;;0.90;99.90;;;;;;5009075;28;20055;-82
2021/12/22 13:06:54;;;;;;;24.30;15.63;;;0.90;99.90;;;;;;5013856;28;20047;-81
2021/12/22 13:09:32;;;;;;;22.17;15.65;;;0.80;99.90;;;;;;5008223;28;20433;-81
2021/12/22 13:12:01;;;;;;;21.58;15.27;;;0.80;99.90;;;;;;5008951;28;20566;-82